Beaver Dam, Wisconsin
Current Conditions -  °F | °C
As of 8:35 AM on Saturday 25 Oct 2014 (Local Time) from KUNU Reporting Station
Clear Clear  
Wind Chill: 52°   Ceiling: Unl
Heat Index: 52°   Visibility: 10mi
Dew Point: 48°   Wind: 3mph
Humidity: 86%   Direction: 260°W
Pressure: 29.92"   Gusts: NA
Location:  43.46°N, 88.83°W
Report Text: KUNU 251335Z AUTO 26003KT 10SM CLR 11/09 A2992 RMK AO2 T01130090
Loading
Personal Weather Stations






























Interactive Weather Map New forecast layout! Learn more

10-Day Weather Forecast

Advertisements
Track Severe Weather on mobile